X

Important NEWS



New Hub Active

Miami is our new hub! Old members can request transfer via hr@dlxairways.net

Thank you very much and have nice flight.


Deluxe Airways.

X

Tours



Hello again, we created one nice test tour for all pilots to attend. also this is ment to be testing of our tour system

Available Tours

If you find some issues please inform us.

Thank you very much and have nice flight.


Deluxe Airways.

 METAR AND TAF INFORMATION
ArrayMETAR FOR KMSY
32752444 5 KMSY 180153Z 04012G19KT 10SM OVC010 23/21 A3020 RMK AO2 SLP230 T02280211 KMSY 2018-10-18T01:53:00Z 30.0 -90.25 22.8 21.1 40 12 19 10.0 30.200787 1023.0 TRUE MVFR METAR 5.0 KMSY 180053Z 04010KT 10SM BKN012 OVC029 23/21 A3019 RMK AO2 SLP225 T02330211 KMSY 2018-10-18T00:53:00Z 30.0 -90.25 23.3 21.1 40 10 10.0 30.188976 1022.5 TRUE MVFR METAR 5.0 KMSY 180029Z 03010G18KT 10SM BKN013 BKN018 OVC030 23/21 A3018 RMK AO2 T02330211 KMSY 2018-10-18T00:29:00Z 30.0 -90.25 23.3 21.1 30 10 18 10.0 30.180119 TRUE MVFR METAR 5.0

 AIRPORT MAP

 RUNWAY INFORMATION
Runway 01 Runway length 7001 ft Runway width 150 ft
Runway elevation 3 ft Runway displaced threshold 0 ft Runway heading 15
Runway 19 Runway length 7001 ft Runway width 150 ft
Runway elevation 0 ft Runway displaced threshold 0 ft Runway heading 195
Runway 06 Runway length 3570 ft Runway width 150 ft
Runway elevation 2 ft Runway displaced threshold 0 ft Runway heading 60
Runway 24 Runway length 3570 ft Runway width 150 ft
Runway elevation 1 ft Runway displaced threshold 0 ft Runway heading 240
Runway 10 Runway length 10104 ft Runway width 150 ft
Runway elevation 4 ft Runway displaced threshold 0 ft Runway heading 106
Runway 28 Runway length 10104 ft Runway width 150 ft
Runway elevation 2 ft Runway displaced threshold 304 ft Runway heading 286

 AIRPORT FREQUENCIES
Type A/D Name NEW ORLEAN Frequency 123.85 MHZ
Type ATIS Name ATIS Frequency 127.55 MHZ
Type CLD Name CLNC DEL Frequency 127.2 MHZ
Type GND Name GND Frequency 121.9 MHZ
Type TWR Name TWR Frequency 119.5 MHZ
Type UNIC Name UNICOM Frequency 122.95 MHZ

 AIRPORT NEAR NAVIGATION AIDS
Type NDB Name Kinte Frequency 338 KHZ



Powered by Virtual Airlines Manager [v2.6.2]

Template code change by DeluxeAir